sensor_id;sensor_type;location;lat;lon;timestamp;P1;durP1;ratioP1;P2;durP2;ratioP2
65279;SDS011;51878;55.748;48.742;2022-07-06T00:01:04;1.23;;;1.13;;
65279;SDS011;51878;55.748;48.742;2022-07-06T00:03:31;3.60;;;1.10;;
65279;SDS011;51878;55.748;48.742;2022-07-06T00:05:59;2.63;;;1.20;;
65279;SDS011;51878;55.748;48.742;2022-07-06T00:08:26;4.30;;;1.30;;
65279;SDS011;51878;55.748;48.742;2022-07-06T00:10:53;1.23;;;1.10;;
65279;SDS011;51878;55.748;48.742;2022-07-06T00:13:20;2.40;;;1.10;;
65279;SDS011;51878;55.748;48.742;2022-07-06T00:15:47;1.80;;;1.10;;
65279;SDS011;51878;55.748;48.742;2022-07-06T00:18:15;4.10;;;1.20;;
65279;SDS011;51878;55.748;48.742;2022-07-06T00:20:42;9.73;;;1.27;;
65279;SDS011;51878;55.748;48.742;2022-07-06T00:23:09;2.38;;;1.15;;
65279;SDS011;51878;55.748;48.742;2022-07-06T00:25:36;3.35;;;1.10;;
65279;SDS011;51878;55.748;48.742;2022-07-06T00:28:04;5.68;;;1.15;;
65279;SDS011;51878;55.748;48.742;2022-07-06T00:30:31;1.60;;;1.05;;
65279;SDS011;51878;55.748;48.742;2022-07-06T00:32:58;3.33;;;1.38;;
65279;SDS011;51878;55.748;48.742;2022-07-06T00:35:25;2.20;;;1.27;;
65279;SDS011;51878;55.748;48.742;2022-07-06T00:37:53;5.32;;;1.00;;
65279;SDS011;51878;55.748;48.742;2022-07-06T00:40:20;4.35;;;1.23;;
65279;SDS011;51878;55.748;48.742;2022-07-06T00:42:48;2.08;;;0.82;;
65279;SDS011;51878;55.748;48.742;2022-07-06T00:45:17;2.92;;;1.00;;
65279;SDS011;51878;55.748;48.742;2022-07-06T00:47:45;3.85;;;1.00;;
65279;SDS011;51878;55.748;48.742;2022-07-06T00:50:14;2.13;;;1.00;;
65279;SDS011;51878;55.748;48.742;2022-07-06T00:52:45;2.03;;;0.95;;
65279;SDS011;51878;55.748;48.742;2022-07-06T00:55:14;7.32;;;1.10;;
65279;SDS011;51878;55.748;48.742;2022-07-06T00:57:42;4.32;;;1.10;;
65279;SDS011;51878;55.748;48.742;2022-07-06T01:00:10;2.47;;;1.00;;
65279;SDS011;51878;55.748;48.742;2022-07-06T01:02:39;5.18;;;1.33;;
65279;SDS011;51878;55.748;48.742;2022-07-06T01:05:08;2.78;;;1.10;;
65279;SDS011;51878;55.748;48.742;2022-07-06T01:07:37;4.55;;;1.10;;
65279;SDS011;51878;55.748;48.742;2022-07-06T01:10:05;3.70;;;1.10;;
65279;SDS011;51878;55.748;48.742;2022-07-06T01:12:34;3.17;;;1.10;;
65279;SDS011;51878;55.748;48.742;2022-07-06T01:15:03;4.38;;;1.13;;
65279;SDS011;51878;55.748;48.742;2022-07-06T01:17:32;4.07;;;1.02;;
65279;SDS011;51878;55.748;48.742;2022-07-06T01:22:44;1.90;;;1.05;;
65279;SDS011;51878;55.748;48.742;2022-07-06T01:25:11;1.88;;;1.00;;
65279;SDS011;51878;55.748;48.742;2022-07-06T01:27:39;1.63;;;1.13;;
65279;SDS011;51878;55.748;48.742;2022-07-06T01:30:08;2.35;;;1.10;;
65279;SDS011;51878;55.748;48.742;2022-07-06T01:32:37;1.92;;;1.35;;
65279;SDS011;51878;55.748;48.742;2022-07-06T01:35:05;1.98;;;1.05;;
65279;SDS011;51878;55.748;48.742;2022-07-06T01:37:34;2.20;;;1.10;;
65279;SDS011;51878;55.748;48.742;2022-07-06T01:40:06;1.90;;;0.90;;
65279;SDS011;51878;55.748;48.742;2022-07-06T01:42:36;2.72;;;1.10;;
65279;SDS011;51878;55.748;48.742;2022-07-06T01:45:04;1.35;;;1.02;;
65279;SDS011;51878;55.748;48.742;2022-07-06T01:47:32;3.13;;;1.10;;
65279;SDS011;51878;55.748;48.742;2022-07-06T01:50:00;2.30;;;1.02;;
65279;SDS011;51878;55.748;48.742;2022-07-06T01:52:31;2.80;;;1.20;;
65279;SDS011;51878;55.748;48.742;2022-07-06T01:54:58;1.77;;;1.10;;
65279;SDS011;51878;55.748;48.742;2022-07-06T01:57:25;2.13;;;1.10;;
65279;SDS011;51878;55.748;48.742;2022-07-06T01:59:52;1.33;;;0.90;;
65279;SDS011;51878;55.748;48.742;2022-07-06T02:02:19;2.42;;;1.10;;
65279;SDS011;51878;55.748;48.742;2022-07-06T02:04:46;2.45;;;1.08;;
65279;SDS011;51878;55.748;48.742;2022-07-06T02:07:14;1.88;;;1.20;;
65279;SDS011;51878;55.748;48.742;2022-07-06T02:09:41;4.35;;;1.00;;
65279;SDS011;51878;55.748;48.742;2022-07-06T02:12:08;1.80;;;1.00;;
65279;SDS011;51878;55.748;48.742;2022-07-06T02:14:35;1.55;;;0.90;;
65279;SDS011;51878;55.748;48.742;2022-07-06T02:17:02;2.10;;;0.90;;
65279;SDS011;51878;55.748;48.742;2022-07-06T02:19:30;1.10;;;1.00;;
65279;SDS011;51878;55.748;48.742;2022-07-06T02:21:57;0.95;;;0.90;;
65279;SDS011;51878;55.748;48.742;2022-07-06T02:24:25;2.65;;;1.20;;
65279;SDS011;51878;55.748;48.742;2022-07-06T02:26:52;0.95;;;0.93;;
65279;SDS011;51878;55.748;48.742;2022-07-06T02:29:19;2.13;;;0.93;;
65279;SDS011;51878;55.748;48.742;2022-07-06T02:31:47;1.33;;;0.90;;
65279;SDS011;51878;55.748;48.742;2022-07-06T02:34:14;1.83;;;1.10;;
65279;SDS011;51878;55.748;48.742;2022-07-06T02:36:41;2.75;;;1.00;;
65279;SDS011;51878;55.748;48.742;2022-07-06T02:39:08;2.53;;;1.02;;
65279;SDS011;51878;55.748;48.742;2022-07-06T02:41:35;2.67;;;0.90;;
65279;SDS011;51878;55.748;48.742;2022-07-06T02:44:02;5.80;;;1.15;;
65279;SDS011;51878;55.748;48.742;2022-07-06T02:46:30;1.10;;;1.00;;
65279;SDS011;51878;55.748;48.742;2022-07-06T02:48:58;3.25;;;1.20;;
65279;SDS011;51878;55.748;48.742;2022-07-06T02:51:25;0.80;;;0.80;;
65279;SDS011;51878;55.748;48.742;2022-07-06T02:53:52;2.15;;;0.90;;
65279;SDS011;51878;55.748;48.742;2022-07-06T02:56:20;4.45;;;1.25;;
65279;SDS011;51878;55.748;48.742;2022-07-06T02:58:49;5.53;;;1.23;;
65279;SDS011;51878;55.748;48.742;2022-07-06T03:01:16;2.95;;;0.98;;
65279;SDS011;51878;55.748;48.742;2022-07-06T03:03:43;2.50;;;1.02;;
65279;SDS011;51878;55.748;48.742;2022-07-06T03:06:10;4.15;;;1.30;;
65279;SDS011;51878;55.748;48.742;2022-07-06T03:08:38;2.10;;;0.90;;
65279;SDS011;51878;55.748;48.742;2022-07-06T03:11:05;2.15;;;1.33;;
65279;SDS011;51878;55.748;48.742;2022-07-06T03:13:32;2.03;;;1.00;;
65279;SDS011;51878;55.748;48.742;2022-07-06T03:15:59;1.55;;;1.25;;
65279;SDS011;51878;55.748;48.742;2022-07-06T03:18:26;2.85;;;1.10;;
65279;SDS011;51878;55.748;48.742;2022-07-06T03:20:54;1.00;;;0.95;;
65279;SDS011;51878;55.748;48.742;2022-07-06T03:23:22;5.22;;;1.10;;
65279;SDS011;51878;55.748;48.742;2022-07-06T03:25:49;4.50;;;1.10;;
65279;SDS011;51878;55.748;48.742;2022-07-06T03:28:16;3.45;;;1.33;;
65279;SDS011;51878;55.748;48.742;2022-07-06T03:30:43;4.32;;;1.13;;
65279;SDS011;51878;55.748;48.742;2022-07-06T03:33:10;5.10;;;1.10;;
65279;SDS011;51878;55.748;48.742;2022-07-06T03:35:37;2.42;;;1.10;;
65279;SDS011;51878;55.748;48.742;2022-07-06T03:38:04;2.38;;;1.02;;
65279;SDS011;51878;55.748;48.742;2022-07-06T03:40:32;5.70;;;1.10;;
65279;SDS011;51878;55.748;48.742;2022-07-06T03:42:59;8.90;;;1.58;;
65279;SDS011;51878;55.748;48.742;2022-07-06T03:45:27;1.20;;;1.02;;
65279;SDS011;51878;55.748;48.742;2022-07-06T03:47:54;1.13;;;1.00;;
65279;SDS011;51878;55.748;48.742;2022-07-06T03:50:21;1.23;;;1.02;;
65279;SDS011;51878;55.748;48.742;2022-07-06T03:52:48;8.25;;;1.10;;
65279;SDS011;51878;55.748;48.742;2022-07-06T03:55:15;3.05;;;1.10;;
65279;SDS011;51878;55.748;48.742;2022-07-06T03:57:42;4.32;;;1.13;;
65279;SDS011;51878;55.748;48.742;2022-07-06T04:00:10;1.77;;;1.02;;
65279;SDS011;51878;55.748;48.742;2022-07-06T04:02:38;4.40;;;1.00;;
65279;SDS011;51878;55.748;48.742;2022-07-06T04:05:05;3.95;;;0.95;;
65279;SDS011;51878;55.748;48.742;2022-07-06T04:07:33;3.50;;;1.20;;
65279;SDS011;51878;55.748;48.742;2022-07-06T04:10:00;1.33;;;1.00;;
65279;SDS011;51878;55.748;48.742;2022-07-06T04:12:28;3.13;;;1.02;;
65279;SDS011;51878;55.748;48.742;2022-07-06T04:14:56;1.85;;;1.00;;
65279;SDS011;51878;55.748;48.742;2022-07-06T04:17:24;3.88;;;1.33;;
65279;SDS011;51878;55.748;48.742;2022-07-06T04:20:09;3.72;;;1.10;;
65279;SDS011;51878;55.748;48.742;2022-07-06T04:22:38;4.70;;;1.30;;
65279;SDS011;51878;55.748;48.742;2022-07-06T04:25:05;4.60;;;0.95;;
65279;SDS011;51878;55.748;48.742;2022-07-06T04:27:33;4.22;;;1.17;;
65279;SDS011;51878;55.748;48.742;2022-07-06T04:30:00;1.38;;;1.20;;
65279;SDS011;51878;55.748;48.742;2022-07-06T04:32:28;3.33;;;0.98;;
65279;SDS011;51878;55.748;48.742;2022-07-06T04:34:56;4.13;;;1.20;;
65279;SDS011;51878;55.748;48.742;2022-07-06T04:37:24;2.97;;;0.90;;
65279;SDS011;51878;55.748;48.742;2022-07-06T04:39:51;8.52;;;1.20;;
65279;SDS011;51878;55.748;48.742;2022-07-06T04:42:18;4.30;;;1.33;;
65279;SDS011;51878;55.748;48.742;2022-07-06T04:44:46;2.17;;;1.05;;
65279;SDS011;51878;55.748;48.742;2022-07-06T04:47:14;1.30;;;1.05;;
65279;SDS011;51878;55.748;48.742;2022-07-06T04:49:42;1.67;;;0.90;;
65279;SDS011;51878;55.748;48.742;2022-07-06T04:52:09;1.27;;;0.98;;
65279;SDS011;51878;55.748;48.742;2022-07-06T04:54:36;4.85;;;1.17;;
65279;SDS011;51878;55.748;48.742;2022-07-06T04:57:04;1.88;;;1.00;;
65279;SDS011;51878;55.748;48.742;2022-07-06T04:59:37;5.15;;;1.00;;
65279;SDS011;51878;55.748;48.742;2022-07-06T05:02:05;4.78;;;1.05;;
65279;SDS011;51878;55.748;48.742;2022-07-06T05:04:32;2.22;;;1.15;;
65279;SDS011;51878;55.748;48.742;2022-07-06T05:06:59;4.13;;;1.23;;
65279;SDS011;51878;55.748;48.742;2022-07-06T05:09:26;3.72;;;1.00;;
65279;SDS011;51878;55.748;48.742;2022-07-06T05:11:54;1.98;;;1.05;;
65279;SDS011;51878;55.748;48.742;2022-07-06T05:14:21;5.50;;;1.10;;
65279;SDS011;51878;55.748;48.742;2022-07-06T05:16:48;6.93;;;1.80;;
65279;SDS011;51878;55.748;48.742;2022-07-06T05:19:15;2.70;;;1.00;;
65279;SDS011;51878;55.748;48.742;2022-07-06T05:21:42;2.70;;;1.10;;
65279;SDS011;51878;55.748;48.742;2022-07-06T05:24:09;6.72;;;1.38;;
65279;SDS011;51878;55.748;48.742;2022-07-06T05:26:36;5.35;;;1.00;;
65279;SDS011;51878;55.748;48.742;2022-07-06T05:29:03;5.35;;;1.15;;
65279;SDS011;51878;55.748;48.742;2022-07-06T05:31:30;3.00;;;1.30;;
65279;SDS011;51878;55.748;48.742;2022-07-06T05:33:58;3.20;;;1.13;;
65279;SDS011;51878;55.748;48.742;2022-07-06T05:36:25;2.25;;;1.38;;
65279;SDS011;51878;55.748;48.742;2022-07-06T05:38:52;4.13;;;1.30;;
65279;SDS011;51878;55.748;48.742;2022-07-06T05:41:19;2.78;;;1.40;;
65279;SDS011;51878;55.748;48.742;2022-07-06T05:43:46;5.68;;;1.45;;
65279;SDS011;51878;55.748;48.742;2022-07-06T05:46:13;2.30;;;1.30;;
65279;SDS011;51878;55.748;48.742;2022-07-06T05:48:41;3.08;;;1.30;;
65279;SDS011;51878;55.748;48.742;2022-07-06T05:51:26;2.15;;;1.40;;
65279;SDS011;51878;55.748;48.742;2022-07-06T05:53:53;2.60;;;1.50;;
65279;SDS011;51878;55.748;48.742;2022-07-06T05:56:20;8.13;;;1.50;;
65279;SDS011;51878;55.748;48.742;2022-07-06T05:58:48;6.13;;;1.58;;
65279;SDS011;51878;55.748;48.742;2022-07-06T06:01:15;3.42;;;1.73;;
65279;SDS011;51878;55.748;48.742;2022-07-06T06:03:42;2.55;;;1.70;;
65279;SDS011;51878;55.748;48.742;2022-07-06T06:06:09;2.13;;;1.63;;
65279;SDS011;51878;55.748;48.742;2022-07-06T06:08:36;3.50;;;1.50;;
65279;SDS011;51878;55.748;48.742;2022-07-06T06:11:05;6.03;;;1.83;;
65279;SDS011;51878;55.748;48.742;2022-07-06T06:13:36;6.32;;;1.90;;
65279;SDS011;51878;55.748;48.742;2022-07-06T06:16:03;5.28;;;2.00;;
65279;SDS011;51878;55.748;48.742;2022-07-06T06:18:31;4.72;;;1.80;;
65279;SDS011;51878;55.748;48.742;2022-07-06T06:21:04;4.28;;;1.80;;
65279;SDS011;51878;55.748;48.742;2022-07-06T06:23:31;2.95;;;1.40;;
65279;SDS011;51878;55.748;48.742;2022-07-06T06:25:58;2.42;;;1.80;;
65279;SDS011;51878;55.748;48.742;2022-07-06T06:28:25;5.85;;;1.70;;
65279;SDS011;51878;55.748;48.742;2022-07-06T06:30:53;2.03;;;1.75;;
65279;SDS011;51878;55.748;48.742;2022-07-06T06:33:20;1.88;;;1.55;;
65279;SDS011;51878;55.748;48.742;2022-07-06T06:35:48;2.63;;;1.60;;
65279;SDS011;51878;55.748;48.742;2022-07-06T06:38:18;5.93;;;1.90;;
65279;SDS011;51878;55.748;48.742;2022-07-06T06:40:47;3.70;;;1.63;;
65279;SDS011;51878;55.748;48.742;2022-07-06T06:43:14;4.43;;;1.60;;
65279;SDS011;51878;55.748;48.742;2022-07-06T06:45:41;6.53;;;1.70;;
65279;SDS011;51878;55.748;48.742;2022-07-06T06:48:09;2.97;;;1.30;;
65279;SDS011;51878;55.748;48.742;2022-07-06T06:50:42;3.17;;;1.27;;
65279;SDS011;51878;55.748;48.742;2022-07-06T06:53:09;4.82;;;1.48;;
65279;SDS011;51878;55.748;48.742;2022-07-06T06:55:36;3.70;;;1.35;;
65279;SDS011;51878;55.748;48.742;2022-07-06T06:58:05;5.47;;;1.80;;
65279;SDS011;51878;55.748;48.742;2022-07-06T07:00:32;9.43;;;1.60;;
65279;SDS011;51878;55.748;48.742;2022-07-06T07:02:59;3.95;;;1.63;;
65279;SDS011;51878;55.748;48.742;2022-07-06T07:05:26;3.35;;;1.70;;
65279;SDS011;51878;55.748;48.742;2022-07-06T07:07:53;4.28;;;1.70;;
65279;SDS011;51878;55.748;48.742;2022-07-06T07:10:29;3.63;;;1.48;;
65279;SDS011;51878;55.748;48.742;2022-07-06T07:12:56;5.97;;;1.80;;
65279;SDS011;51878;55.748;48.742;2022-07-06T07:15:23;4.35;;;1.45;;
65279;SDS011;51878;55.748;48.742;2022-07-06T07:17:51;5.28;;;1.40;;
65279;SDS011;51878;55.748;48.742;2022-07-06T07:20:18;6.70;;;1.77;;
65279;SDS011;51878;55.748;48.742;2022-07-06T07:22:45;7.68;;;2.22;;
65279;SDS011;51878;55.748;48.742;2022-07-06T07:25:12;1.70;;;1.60;;
65279;SDS011;51878;55.748;48.742;2022-07-06T07:27:39;3.83;;;1.65;;
65279;SDS011;51878;55.748;48.742;2022-07-06T07:30:06;8.95;;;1.77;;
65279;SDS011;51878;55.748;48.742;2022-07-06T07:32:34;3.30;;;1.67;;
65279;SDS011;51878;55.748;48.742;2022-07-06T07:35:02;5.18;;;1.80;;
65279;SDS011;51878;55.748;48.742;2022-07-06T07:37:30;6.35;;;1.80;;
65279;SDS011;51878;55.748;48.742;2022-07-06T07:39:57;9.35;;;3.03;;
65279;SDS011;51878;55.748;48.742;2022-07-06T07:42:31;10.90;;;1.98;;
65279;SDS011;51878;55.748;48.742;2022-07-06T07:44:59;5.78;;;2.00;;
65279;SDS011;51878;55.748;48.742;2022-07-06T07:47:29;4.88;;;1.90;;
65279;SDS011;51878;55.748;48.742;2022-07-06T07:49:58;5.90;;;1.98;;
65279;SDS011;51878;55.748;48.742;2022-07-06T07:52:25;11.43;;;2.20;;
65279;SDS011;51878;55.748;48.742;2022-07-06T07:54:52;6.47;;;1.95;;
65279;SDS011;51878;55.748;48.742;2022-07-06T07:57:39;6.07;;;2.35;;
65279;SDS011;51878;55.748;48.742;2022-07-06T08:00:06;6.15;;;1.85;;
65279;SDS011;51878;55.748;48.742;2022-07-06T08:02:37;2.38;;;1.70;;
65279;SDS011;51878;55.748;48.742;2022-07-06T08:05:06;7.60;;;1.90;;
65279;SDS011;51878;55.748;48.742;2022-07-06T08:07:39;7.88;;;2.30;;
65279;SDS011;51878;55.748;48.742;2022-07-06T08:10:08;5.97;;;1.95;;
65279;SDS011;51878;55.748;48.742;2022-07-06T08:12:37;7.57;;;1.80;;
65279;SDS011;51878;55.748;48.742;2022-07-06T08:15:14;4.13;;;1.80;;
65279;SDS011;51878;55.748;48.742;2022-07-06T08:17:43;6.82;;;2.08;;
65279;SDS011;51878;55.748;48.742;2022-07-06T08:20:10;4.50;;;2.00;;
65279;SDS011;51878;55.748;48.742;2022-07-06T08:22:38;5.35;;;1.75;;
65279;SDS011;51878;55.748;48.742;2022-07-06T08:25:07;3.75;;;1.70;;
65279;SDS011;51878;55.748;48.742;2022-07-06T08:27:36;5.15;;;1.90;;
65279;SDS011;51878;55.748;48.742;2022-07-06T08:30:04;5.63;;;1.75;;
65279;SDS011;51878;55.748;48.742;2022-07-06T08:32:31;8.00;;;2.00;;
65279;SDS011;51878;55.748;48.742;2022-07-06T08:35:19;4.00;;;1.90;;
65279;SDS011;51878;55.748;48.742;2022-07-06T08:37:46;7.43;;;1.70;;
65279;SDS011;51878;55.748;48.742;2022-07-06T08:40:17;3.40;;;1.60;;
65279;SDS011;51878;55.748;48.742;2022-07-06T08:42:45;2.75;;;1.77;;
65279;SDS011;51878;55.748;48.742;2022-07-06T08:45:20;4.25;;;1.80;;
65279;SDS011;51878;55.748;48.742;2022-07-06T08:47:48;2.70;;;1.63;;
65279;SDS011;51878;55.748;48.742;2022-07-06T08:50:16;2.17;;;1.67;;
65279;SDS011;51878;55.748;48.742;2022-07-06T08:52:48;4.75;;;1.98;;
65279;SDS011;51878;55.748;48.742;2022-07-06T08:55:16;4.03;;;1.80;;
65279;SDS011;51878;55.748;48.742;2022-07-06T08:57:45;5.05;;;1.80;;
65279;SDS011;51878;55.748;48.742;2022-07-06T09:00:14;4.82;;;1.90;;
65279;SDS011;51878;55.748;48.742;2022-07-06T09:02:42;3.55;;;1.80;;
65279;SDS011;51878;55.748;48.742;2022-07-06T09:05:11;4.50;;;1.85;;
65279;SDS011;51878;55.748;48.742;2022-07-06T09:07:50;5.47;;;1.90;;
65279;SDS011;51878;55.748;48.742;2022-07-06T09:10:26;3.38;;;1.80;;
65279;SDS011;51878;55.748;48.742;2022-07-06T09:13:01;4.93;;;2.00;;
65279;SDS011;51878;55.748;48.742;2022-07-06T09:15:30;3.75;;;2.03;;
65279;SDS011;51878;55.748;48.742;2022-07-06T09:17:58;4.40;;;1.90;;
65279;SDS011;51878;55.748;48.742;2022-07-06T09:20:26;2.40;;;1.80;;
65279;SDS011;51878;55.748;48.742;2022-07-06T09:22:56;3.95;;;1.70;;
65279;SDS011;51878;55.748;48.742;2022-07-06T09:25:26;5.75;;;1.80;;
65279;SDS011;51878;55.748;48.742;2022-07-06T09:27:57;2.42;;;1.70;;
65279;SDS011;51878;55.748;48.742;2022-07-06T09:30:30;2.75;;;1.60;;
65279;SDS011;51878;55.748;48.742;2022-07-06T09:32:58;4.88;;;1.90;;
65279;SDS011;51878;55.748;48.742;2022-07-06T09:38:12;2.50;;;1.75;;
65279;SDS011;51878;55.748;48.742;2022-07-06T09:40:40;4.05;;;2.20;;
65279;SDS011;51878;55.748;48.742;2022-07-06T09:43:16;8.07;;;2.20;;
65279;SDS011;51878;55.748;48.742;2022-07-06T09:45:46;4.43;;;1.80;;
65279;SDS011;51878;55.748;48.742;2022-07-06T09:48:20;2.67;;;1.92;;
65279;SDS011;51878;55.748;48.742;2022-07-06T09:53:21;10.02;;;2.10;;
65279;SDS011;51878;55.748;48.742;2022-07-06T09:55:52;5.50;;;1.52;;
65279;SDS011;51878;55.748;48.742;2022-07-06T09:58:20;4.70;;;2.00;;
65279;SDS011;51878;55.748;48.742;2022-07-06T10:01:09;3.28;;;1.90;;
65279;SDS011;51878;55.748;48.742;2022-07-06T10:03:36;6.47;;;1.75;;
65279;SDS011;51878;55.748;48.742;2022-07-06T10:06:04;4.93;;;1.90;;
65279;SDS011;51878;55.748;48.742;2022-07-06T10:08:32;10.40;;;2.30;;
65279;SDS011;51878;55.748;48.742;2022-07-06T10:11:01;4.05;;;1.75;;
65279;SDS011;51878;55.748;48.742;2022-07-06T10:13:30;5.18;;;2.00;;
65279;SDS011;51878;55.748;48.742;2022-07-06T10:15:59;2.90;;;1.98;;
65279;SDS011;51878;55.748;48.742;2022-07-06T10:18:26;7.15;;;1.90;;
65279;SDS011;51878;55.748;48.742;2022-07-06T10:20:54;3.83;;;1.80;;
65279;SDS011;51878;55.748;48.742;2022-07-06T10:23:22;7.68;;;2.42;;
65279;SDS011;51878;55.748;48.742;2022-07-06T10:25:51;3.63;;;2.20;;
65279;SDS011;51878;55.748;48.742;2022-07-06T10:28:21;7.65;;;2.28;;
65279;SDS011;51878;55.748;48.742;2022-07-06T10:30:49;4.50;;;2.10;;
65279;SDS011;51878;55.748;48.742;2022-07-06T10:33:17;3.50;;;1.85;;
65279;SDS011;51878;55.748;48.742;2022-07-06T10:35:49;3.85;;;2.00;;
65279;SDS011;51878;55.748;48.742;2022-07-06T10:38:17;5.57;;;2.00;;
65279;SDS011;51878;55.748;48.742;2022-07-06T10:40:45;3.90;;;1.80;;
65279;SDS011;51878;55.748;48.742;2022-07-06T10:43:37;4.88;;;1.83;;
65279;SDS011;51878;55.748;48.742;2022-07-06T10:46:12;4.22;;;2.05;;
65279;SDS011;51878;55.748;48.742;2022-07-06T10:48:41;5.68;;;1.92;;
65279;SDS011;51878;55.748;48.742;2022-07-06T10:51:12;11.52;;;2.17;;
65279;SDS011;51878;55.748;48.742;2022-07-06T10:53:55;5.00;;;2.00;;
65279;SDS011;51878;55.748;48.742;2022-07-06T10:56:38;10.20;;;2.35;;
65279;SDS011;51878;55.748;48.742;2022-07-06T11:02:23;4.68;;;2.10;;
65279;SDS011;51878;55.748;48.742;2022-07-06T11:04:44;5.05;;;1.90;;
65279;SDS011;51878;55.748;48.742;2022-07-06T11:07:13;6.38;;;2.40;;
65279;SDS011;51878;55.748;48.742;2022-07-06T11:09:56;7.75;;;2.63;;
65279;SDS011;51878;55.748;48.742;2022-07-06T11:12:25;2.97;;;2.20;;
65279;SDS011;51878;55.748;48.742;2022-07-06T11:14:54;4.78;;;2.20;;
65279;SDS011;51878;55.748;48.742;2022-07-06T11:17:22;5.07;;;2.30;;
65279;SDS011;51878;55.748;48.742;2022-07-06T11:19:58;6.78;;;2.40;;
65279;SDS011;51878;55.748;48.742;2022-07-06T11:22:38;4.85;;;2.10;;
65279;SDS011;51878;55.748;48.742;2022-07-06T11:25:08;3.80;;;2.08;;
65279;SDS011;51878;55.748;48.742;2022-07-06T11:27:38;5.15;;;2.08;;
65279;SDS011;51878;55.748;48.742;2022-07-06T11:30:06;7.85;;;2.35;;
65279;SDS011;51878;55.748;48.742;2022-07-06T11:32:38;2.80;;;2.00;;
65279;SDS011;51878;55.748;48.742;2022-07-06T11:35:06;5.18;;;2.25;;
65279;SDS011;51878;55.748;48.742;2022-07-06T11:37:33;6.38;;;2.35;;
65279;SDS011;51878;55.748;48.742;2022-07-06T11:40:06;7.85;;;2.20;;
65279;SDS011;51878;55.748;48.742;2022-07-06T11:42:34;3.55;;;1.80;;
65279;SDS011;51878;55.748;48.742;2022-07-06T11:45:02;6.63;;;2.10;;
65279;SDS011;51878;55.748;48.742;2022-07-06T11:47:30;5.97;;;2.30;;
65279;SDS011;51878;55.748;48.742;2022-07-06T11:49:57;5.15;;;2.20;;
65279;SDS011;51878;55.748;48.742;2022-07-06T11:52:24;5.18;;;2.28;;
65279;SDS011;51878;55.748;48.742;2022-07-06T11:54:59;3.42;;;1.88;;
65279;SDS011;51878;55.748;48.742;2022-07-06T11:57:27;7.28;;;2.05;;
65279;SDS011;51878;55.748;48.742;2022-07-06T12:00:00;3.70;;;1.73;;
65279;SDS011;51878;55.748;48.742;2022-07-06T12:02:30;3.88;;;2.03;;
65279;SDS011;51878;55.748;48.742;2022-07-06T12:04:57;4.30;;;2.05;;
65279;SDS011;51878;55.748;48.742;2022-07-06T12:07:24;3.45;;;2.00;;
65279;SDS011;51878;55.748;48.742;2022-07-06T12:09:51;3.92;;;1.77;;
65279;SDS011;51878;55.748;48.742;2022-07-06T12:12:18;9.43;;;2.20;;
65279;SDS011;51878;55.748;48.742;2022-07-06T12:14:46;1.88;;;1.55;;
65279;SDS011;51878;55.748;48.742;2022-07-06T12:17:13;2.85;;;1.85;;
65279;SDS011;51878;55.748;48.742;2022-07-06T12:19:42;4.57;;;1.70;;
65279;SDS011;51878;55.748;48.742;2022-07-06T12:22:13;2.65;;;1.90;;
65279;SDS011;51878;55.748;48.742;2022-07-06T12:24:50;7.57;;;2.20;;
65279;SDS011;51878;55.748;48.742;2022-07-06T12:27:18;4.47;;;1.80;;
65279;SDS011;51878;55.748;48.742;2022-07-06T12:29:47;7.80;;;2.00;;
65279;SDS011;51878;55.748;48.742;2022-07-06T12:32:18;5.15;;;1.95;;
65279;SDS011;51878;55.748;48.742;2022-07-06T12:35:05;7.75;;;1.98;;
65279;SDS011;51878;55.748;48.742;2022-07-06T12:37:34;3.80;;;1.77;;
65279;SDS011;51878;55.748;48.742;2022-07-06T12:40:02;4.07;;;2.25;;
65279;SDS011;51878;55.748;48.742;2022-07-06T12:42:45;5.43;;;1.90;;
65279;SDS011;51878;55.748;48.742;2022-07-06T12:45:16;5.00;;;1.77;;
65279;SDS011;51878;55.748;48.742;2022-07-06T12:47:56;7.25;;;1.90;;
65279;SDS011;51878;55.748;48.742;2022-07-06T12:53:03;5.28;;;2.03;;
65279;SDS011;51878;55.748;48.742;2022-07-06T12:55:32;7.63;;;1.70;;
65279;SDS011;51878;55.748;48.742;2022-07-06T12:58:00;10.27;;;1.85;;
65279;SDS011;51878;55.748;48.742;2022-07-06T13:00:27;5.18;;;2.03;;
65279;SDS011;51878;55.748;48.742;2022-07-06T13:02:54;2.88;;;2.00;;
65279;SDS011;51878;55.748;48.742;2022-07-06T13:05:38;2.73;;;1.67;;
65279;SDS011;51878;55.748;48.742;2022-07-06T13:08:05;3.70;;;1.95;;
65279;SDS011;51878;55.748;48.742;2022-07-06T13:10:33;3.40;;;1.90;;
65279;SDS011;51878;55.748;48.742;2022-07-06T13:13:02;6.57;;;2.10;;
65279;SDS011;51878;55.748;48.742;2022-07-06T13:15:31;4.70;;;1.75;;
65279;SDS011;51878;55.748;48.742;2022-07-06T13:17:58;2.10;;;1.80;;
65279;SDS011;51878;55.748;48.742;2022-07-06T13:20:26;7.28;;;2.10;;
65279;SDS011;51878;55.748;48.742;2022-07-06T13:22:54;2.85;;;1.98;;
65279;SDS011;51878;55.748;48.742;2022-07-06T13:25:21;3.85;;;2.03;;
65279;SDS011;51878;55.748;48.742;2022-07-06T13:27:48;5.07;;;2.00;;
65279;SDS011;51878;55.748;48.742;2022-07-06T13:30:16;5.32;;;1.70;;
65279;SDS011;51878;55.748;48.742;2022-07-06T13:32:43;6.13;;;1.60;;
65279;SDS011;51878;55.748;48.742;2022-07-06T13:35:10;3.22;;;2.05;;
65279;SDS011;51878;55.748;48.742;2022-07-06T13:37:39;4.55;;;1.90;;
65279;SDS011;51878;55.748;48.742;2022-07-06T13:40:12;12.63;;;2.03;;
65279;SDS011;51878;55.748;48.742;2022-07-06T13:42:41;2.35;;;1.80;;
65279;SDS011;51878;55.748;48.742;2022-07-06T13:45:09;4.38;;;2.03;;
65279;SDS011;51878;55.748;48.742;2022-07-06T13:47:36;6.32;;;2.13;;
65279;SDS011;51878;55.748;48.742;2022-07-06T13:50:04;3.42;;;1.70;;
65279;SDS011;51878;55.748;48.742;2022-07-06T13:52:31;3.00;;;1.90;;
65279;SDS011;51878;55.748;48.742;2022-07-06T13:54:58;4.68;;;2.10;;
65279;SDS011;51878;55.748;48.742;2022-07-06T13:57:29;6.40;;;2.30;;
65279;SDS011;51878;55.748;48.742;2022-07-06T13:59:56;3.55;;;1.85;;
65279;SDS011;51878;55.748;48.742;2022-07-06T14:02:23;5.20;;;1.83;;
65279;SDS011;51878;55.748;48.742;2022-07-06T14:04:51;3.15;;;2.13;;
65279;SDS011;51878;55.748;48.742;2022-07-06T14:07:18;2.78;;;1.77;;
65279;SDS011;51878;55.748;48.742;2022-07-06T14:09:46;4.07;;;1.90;;
65279;SDS011;51878;55.748;48.742;2022-07-06T14:12:18;9.60;;;1.83;;
65279;SDS011;51878;55.748;48.742;2022-07-06T14:14:46;3.97;;;1.73;;
65279;SDS011;51878;55.748;48.742;2022-07-06T14:17:13;3.65;;;1.80;;
65279;SDS011;51878;55.748;48.742;2022-07-06T14:19:40;2.80;;;1.55;;
65279;SDS011;51878;55.748;48.742;2022-07-06T14:22:07;3.13;;;1.70;;
65279;SDS011;51878;55.748;48.742;2022-07-06T14:24:34;6.25;;;2.20;;
65279;SDS011;51878;55.748;48.742;2022-07-06T14:27:02;5.25;;;2.33;;
65279;SDS011;51878;55.748;48.742;2022-07-06T14:29:29;4.25;;;1.70;;
65279;SDS011;51878;55.748;48.742;2022-07-06T14:31:56;6.25;;;2.13;;
65279;SDS011;51878;55.748;48.742;2022-07-06T14:34:24;3.22;;;1.60;;
65279;SDS011;51878;55.748;48.742;2022-07-06T14:36:51;5.38;;;1.73;;
65279;SDS011;51878;55.748;48.742;2022-07-06T14:39:18;3.90;;;2.05;;
65279;SDS011;51878;55.748;48.742;2022-07-06T14:41:45;6.22;;;2.05;;
65279;SDS011;51878;55.748;48.742;2022-07-06T14:44:12;2.22;;;1.90;;
65279;SDS011;51878;55.748;48.742;2022-07-06T14:46:39;3.50;;;2.00;;
65279;SDS011;51878;55.748;48.742;2022-07-06T14:49:07;3.38;;;1.92;;
65279;SDS011;51878;55.748;48.742;2022-07-06T14:51:34;6.63;;;2.15;;
65279;SDS011;51878;55.748;48.742;2022-07-06T14:54:02;2.75;;;2.00;;
65279;SDS011;51878;55.748;48.742;2022-07-06T14:56:29;3.30;;;1.90;;